TDPD

Details ICAO TDPD (DOM)
Name Douglas-Charles/Melville Hall
Region Dominica
Timezone America/Dominica (UTC-4.0)
Plans Departing 58
Arriving 96
Stats Elevation 73 ft / 22 m (AMSL)
Location 15.546600° -61.301400°
Runways 1
Magnetic Variation 14.969° W
Sunrise 2018-12-16 10:25:56 UTC / 2018-12-16 06:25:56 Local
Sunset 2018-12-16 21:38:25 UTC / 2018-12-16 17:38:25 Local
Advertisement - Login to hide

Runways

ID Width Length Bearing (true/mag) Surface Threshold Overrun Markings Lighting
09 148 ft / 45 m 5,766 ft / 1,758 m 69.77° / 84.74° ASPHALT 1,145 ft / 349 m 0 ft / 0 m PREC-APP EDGE THRESHOLD
27 148 ft / 45 m 5,766 ft / 1,758 m 249.78° / 264.75° ASPHALT 0 ft / 0 m 0 ft / 0 m PREC-APP EDGE THRESHOLD SALS

Map

Weather


0- 5 10 15 20 25 30 35+ Temperature / °C

Clouds and Precipitation
Forecast for 2018-12-16 12:00 UTC. Updated an hour ago

Ground ~20,000 ft ~40,000 ft Winds

METAR

TDPD 161000Z 11012KT 9999 FEW020 25/18 Q1019

TAF

Not found

Frequencies

Tower 118.90 MHz
Warning: Do not use this data for real-world aviation or navigation. No guarantee of current accuracy is given.